Time;durP1;ratioP1;P1;durP2;ratioP2;P2;SDS_P1;SDS_P2;PMS_P1;PMS_P2;Temp;Humidity;BMP_temperature;BMP_pressure;BME280_temperature;BME280_humidity;BME280_pressure;Samples;Min_cycle;Max_cycle;Signal;HPM_P1;HPM_P2
2022/10/28 00:01:08;;;;;;;6.70;3.95;;;17.20;99.90;;;;;;5074332;28;20492;-40
2022/10/28 00:03:38;;;;;;;8.43;5.55;;;17.10;99.90;;;;;;5083796;28;20012;-35
2022/10/28 00:06:16;;;;;;;9.73;5.03;;;17.10;99.90;;;;;;5074845;28;20016;-39
2022/10/28 00:08:42;;;;;;;5.43;4.55;;;17.10;99.90;;;;;;5082005;28;20040;-39
2022/10/28 00:11:14;;;;;;;5.40;4.30;;;17.10;99.90;;;;;;5072641;28;20143;-40
2022/10/28 00:13:41;;;;;;;6.47;4.10;;;17.10;99.90;;;;;;5083491;28;20028;-39
2022/10/28 00:16:11;;;;;;;7.28;4.50;;;17.10;99.90;;;;;;5073024;28;20061;-40
2022/10/28 00:18:37;;;;;;;6.57;4.60;;;17.10;99.90;;;;;;5083974;28;20382;-40
2022/10/28 00:21:07;;;;;;;7.47;4.63;;;17.10;99.90;;;;;;5074005;28;20074;-39
2022/10/28 00:23:32;;;;;;;7.70;4.90;;;17.00;99.90;;;;;;5084478;28;20107;-36
2022/10/28 00:26:12;;;;;;;6.90;5.45;;;17.10;99.90;;;;;;5071644;28;20829;-41
2022/10/28 00:28:53;;;;;;;7.55;5.05;;;17.00;99.90;;;;;;5084280;28;20138;-40
2022/10/28 00:31:21;;;;;;;9.15;4.78;;;17.00;99.90;;;;;;5071291;28;20032;-39
2022/10/28 00:33:46;;;;;;;6.78;5.55;;;17.00;99.90;;;;;;5084776;28;20081;-40
2022/10/28 00:36:39;;;;;;;7.45;4.82;;;17.00;99.90;;;;;;5070558;28;20462;-37
2022/10/28 00:39:10;;;;;;;;;;;17.00;99.90;;;;;;5080530;28;20046;-40
2022/10/28 00:41:38;;;;;;;7.68;5.28;;;17.00;99.90;;;;;;5076690;28;19908;-37
2022/10/28 00:44:41;;;;;;;6.22;5.10;;;17.00;99.90;;;;;;5063926;28;20036;-38
2022/10/28 00:47:37;;;;;;;6.68;4.93;;;16.90;99.90;;;;;;5081795;28;20027;-41
2022/10/28 00:50:08;;;;;;;8.85;5.38;;;16.90;99.90;;;;;;5082013;28;20058;-39
2022/10/28 00:52:34;;;;;;;7.82;5.20;;;16.90;99.90;;;;;;5072650;28;20059;-39
2022/10/28 00:55:01;;;;;;;8.73;5.55;;;16.90;99.90;;;;;;5083147;28;20693;-40
2022/10/28 00:57:33;;;;;;;8.25;5.25;;;16.90;99.90;;;;;;5072169;28;20028;-39
2022/10/28 01:00:00;;;;;;;9.65;4.93;;;16.90;99.90;;;;;;5083591;28;20491;-39
2022/10/28 01:02:26;;;;;;;8.57;5.40;;;16.90;99.90;;;;;;5072589;28;20026;-38
2022/10/28 01:04:52;;;;;;;6.82;5.00;;;16.90;99.90;;;;;;5083402;28;20027;-38
2022/10/28 01:07:18;;;;;;;7.25;4.72;;;16.90;99.90;;;;;;5070333;28;20037;-36
2022/10/28 01:09:43;;;;;;;7.40;4.78;;;16.90;99.90;;;;;;5064371;28;20044;-39
2022/10/28 01:12:39;;;;;;;8.20;4.95;;;16.90;99.90;;;;;;5074761;28;20020;-39
2022/10/28 01:15:11;;;;;;;9.77;5.28;;;16.90;99.90;;;;;;5063742;28;20122;-37
2022/10/28 01:18:04;;;;;;;9.45;5.35;;;16.80;99.90;;;;;;5075784;28;20032;-39
2022/10/28 01:21:08;;;;;;;7.90;5.32;;;16.80;99.90;;;;;;5063038;28;20525;-39
2022/10/28 01:23:56;;;;;;;7.07;5.10;;;16.80;99.90;;;;;;5083590;28;20083;-40
2022/10/28 01:26:47;;;;;;;9.43;5.47;;;16.80;99.90;;;;;;5081345;28;20082;-39
2022/10/28 01:29:37;;;;;;;8.40;5.43;;;16.80;99.90;;;;;;5074615;28;20555;-40
2022/10/28 01:32:08;;;;;;;10.43;5.55;;;16.80;99.90;;;;;;5076996;28;20044;-39
2022/10/28 01:34:44;;;;;;;7.18;4.85;;;16.70;99.90;;;;;;5076443;28;20040;-38
2022/10/28 01:37:30;;;;;;;9.82;5.53;;;16.80;99.90;;;;;;5077398;28;20024;-39
2022/10/28 01:40:07;;;;;;;12.43;5.28;;;16.80;99.90;;;;;;5078429;28;20040;-37
2022/10/28 01:42:42;;;;;;;7.50;6.70;;;16.70;99.90;;;;;;5075901;28;20051;-40
2022/10/28 01:45:18;;;;;;;8.85;6.32;;;16.70;99.90;;;;;;5079248;28;20040;-38
2022/10/28 01:47:54;;;;;;;10.23;7.75;;;16.70;99.90;;;;;;5075809;28;20107;-39
2022/10/28 01:50:28;;;;;;;11.98;7.50;;;16.70;99.90;;;;;;5078459;28;20434;-39
2022/10/28 01:52:57;;;;;;;8.00;6.15;;;16.70;99.90;;;;;;5075839;28;20133;-39
2022/10/28 01:55:26;;;;;;;8.15;6.18;;;16.70;99.90;;;;;;5077257;28;20027;-38
2022/10/28 01:57:56;;;;;;;7.22;5.60;;;16.70;99.90;;;;;;5077942;28;20028;-38
2022/10/28 02:00:21;;;;;;;6.32;5.72;;;16.70;99.90;;;;;;5075815;28;20032;-39
2022/10/28 02:02:49;;;;;;;8.55;5.30;;;16.70;99.90;;;;;;5080106;28;20029;-39
2022/10/28 02:05:38;;;;;;;10.55;5.40;;;16.70;99.90;;;;;;5073595;28;20401;-42
2022/10/28 02:08:19;;;;;;;7.88;6.03;;;16.70;99.90;;;;;;5076873;28;20025;-39
2022/10/28 02:11:11;;;;;;;9.68;5.45;;;16.70;99.90;;;;;;5078746;28;20054;-40
2022/10/28 02:13:42;;;;;;;6.78;5.60;;;16.70;99.90;;;;;;5027937;28;20032;-38
2022/10/28 02:16:21;;;;;;;8.60;5.50;;;16.70;99.90;;;;;;5077972;28;20063;-40
2022/10/28 02:18:52;;;;;;;5.75;4.90;;;16.70;99.90;;;;;;5066612;28;20016;-39
2022/10/28 02:21:47;;;;;;;7.03;5.43;;;16.70;99.90;;;;;;5077392;28;20502;-40
2022/10/28 02:24:20;;;;;;;9.60;5.70;;;16.70;99.90;;;;;;5034613;28;20052;-39
2022/10/28 02:26:53;;;;;;;7.97;5.10;;;16.70;99.90;;;;;;5080790;28;20483;-41
2022/10/28 02:29:42;;;;;;;9.70;5.30;;;16.70;99.90;;;;;;5073281;28;20070;-39
2022/10/28 02:32:14;;;;;;;7.45;5.05;;;16.70;99.90;;;;;;5080633;28;20646;-38
2022/10/28 02:34:43;;;;;;;8.18;5.25;;;16.70;99.90;;;;;;5072731;28;20017;-39
2022/10/28 02:37:16;;;;;;;7.45;4.95;;;16.70;99.90;;;;;;5079120;28;20533;-38
2022/10/28 02:39:44;;;;;;;;;;;16.60;99.90;;;;;;5073955;28;20033;-40
2022/10/28 02:42:26;;;;;;;7.35;4.57;;;16.60;99.90;;;;;;5078317;28;19954;-40
2022/10/28 02:45:01;;;;;;;7.30;4.88;;;16.60;99.90;;;;;;5074055;28;20029;-40
2022/10/28 02:47:32;;;;;;;9.38;4.57;;;16.60;99.90;;;;;;5079924;28;20031;-40
2022/10/28 02:50:02;;;;;;;6.97;4.88;;;16.60;99.90;;;;;;5073764;28;20033;-38
2022/10/28 02:52:30;;;;;;;9.73;5.00;;;16.60;99.90;;;;;;5078676;28;20494;-38
2022/10/28 02:54:58;;;;;;;7.95;4.70;;;16.50;99.90;;;;;;5076342;28;20077;-36
2022/10/28 02:57:36;;;;;;;9.57;4.72;;;16.50;99.90;;;;;;5075951;28;20757;-39
2022/10/28 03:00:07;;;;;;;10.15;4.47;;;16.50;99.90;;;;;;5076632;28;20036;-39
2022/10/28 03:02:32;;;;;;;8.18;4.93;;;16.50;99.90;;;;;;5077103;28;20031;-40
2022/10/28 03:04:58;;;;;;;8.77;4.63;;;16.50;99.90;;;;;;5077821;28;20032;-40
2022/10/28 03:07:23;;;;;;;6.85;4.30;;;16.50;99.90;;;;;;5076080;28;20020;-39
2022/10/28 03:09:50;;;;;;;6.63;4.35;;;16.50;99.90;;;;;;5068452;28;20034;-39
2022/10/28 03:12:15;;;;;;;7.20;4.80;;;16.50;99.90;;;;;;5074203;28;20028;-39
2022/10/28 03:14:41;;;;;;;9.38;4.68;;;16.40;99.90;;;;;;5084379;28;20031;-36
2022/10/28 03:17:10;;;;;;;9.35;4.47;;;16.40;99.90;;;;;;5073991;28;20032;-38
2022/10/28 03:19:35;;;;;;;7.72;4.78;;;16.40;99.90;;;;;;5085157;28;20551;-40
2022/10/28 03:22:01;;;;;;;9.32;4.65;;;16.40;99.90;;;;;;5073595;28;20031;-37
2022/10/28 03:24:26;;;;;;;12.35;4.80;;;16.30;99.90;;;;;;5085380;28;20449;-39
2022/10/28 03:26:52;;;;;;;7.15;4.47;;;16.30;99.90;;;;;;5072630;28;20074;-40
2022/10/28 03:29:17;;;;;;;7.30;4.60;;;16.30;99.90;;;;;;5085905;28;20020;-39
2022/10/28 03:31:43;;;;;;;6.60;4.28;;;16.30;99.90;;;;;;5073154;28;20056;-39
2022/10/28 03:34:11;;;;;;;6.60;4.10;;;16.20;99.90;;;;;;5083803;28;20041;-40
2022/10/28 03:36:37;;;;;;;8.60;5.32;;;16.20;99.90;;;;;;5076261;28;20090;-41
2022/10/28 03:39:02;;;;;;;7.40;4.93;;;16.20;99.90;;;;;;5081565;28;20036;-37
2022/10/28 03:41:28;;;;;;;8.27;4.05;;;16.20;99.90;;;;;;5078136;28;20036;-39
2022/10/28 03:43:54;;;;;;;6.95;4.20;;;16.20;99.90;;;;;;5079508;28;20024;-40
2022/10/28 03:46:19;;;;;;;6.28;4.60;;;16.10;99.90;;;;;;5080781;28;20022;-40
2022/10/28 03:48:45;;;;;;;6.28;4.93;;;16.10;99.90;;;;;;5076754;28;20039;-41
2022/10/28 03:51:13;;;;;;;7.13;4.30;;;16.00;99.90;;;;;;5083746;28;20032;-39
2022/10/28 03:53:38;;;;;;;7.40;4.25;;;16.00;99.90;;;;;;5073824;28;20020;-40
2022/10/28 03:56:04;;;;;;;6.10;3.90;;;15.90;99.90;;;;;;5083765;28;20467;-40
2022/10/28 03:58:30;;;;;;;6.00;4.18;;;15.90;99.90;;;;;;5073500;28;20583;-36
2022/10/28 04:00:56;;;;;;;6.45;4.22;;;15.90;99.90;;;;;;5084330;28;20490;-38
2022/10/28 04:03:23;;;;;;;5.40;3.83;;;15.80;99.90;;;;;;5071856;28;20574;-39
2022/10/28 04:05:48;;;;;;;5.18;3.88;;;15.80;99.90;;;;;;5084697;28;20024;-40
2022/10/28 04:08:15;;;;;;;9.18;4.47;;;15.80;99.90;;;;;;5069856;28;20032;-40
2022/10/28 04:10:42;;;;;;;7.55;4.32;;;15.70;99.90;;;;;;5064982;28;20118;-43
2022/10/28 04:13:08;;;;;;;5.38;4.32;;;15.70;99.90;;;;;;5075814;28;20024;-40
2022/10/28 04:15:34;;;;;;;6.45;3.80;;;15.70;99.90;;;;;;5064535;28;20442;-39
2022/10/28 04:17:59;;;;;;;5.90;3.88;;;15.60;99.90;;;;;;5072987;28;20460;-39
2022/10/28 04:20:26;;;;;;;5.28;3.67;;;15.60;99.90;;;;;;5067554;28;20094;-40
2022/10/28 04:22:53;;;;;;;4.70;3.95;;;15.60;99.90;;;;;;5071039;28;20047;-40
2022/10/28 04:25:22;;;;;;;5.28;3.72;;;15.50;99.90;;;;;;5070144;28;20036;-39
2022/10/28 04:27:48;;;;;;;5.43;3.63;;;15.50;99.90;;;;;;5068492;28;20023;-40
2022/10/28 04:30:13;;;;;;;5.40;3.75;;;15.50;99.90;;;;;;5071343;28;20032;-40
2022/10/28 04:32:40;;;;;;;8.38;3.78;;;15.50;99.90;;;;;;5065653;28;20048;-41
2022/10/28 04:35:06;;;;;;;7.57;4.10;;;15.40;99.90;;;;;;5074205;28;20028;-41
2022/10/28 04:37:32;;;;;;;6.22;4.25;;;15.40;99.90;;;;;;5064751;28;20032;-39
2022/10/28 04:39:57;;;;;;;5.55;4.00;;;15.30;99.90;;;;;;5075958;28;20029;-39
2022/10/28 04:42:23;;;;;;;6.82;4.10;;;15.30;99.90;;;;;;5064096;28;20020;-39
2022/10/28 04:44:49;;;;;;;5.78;3.63;;;15.30;99.90;;;;;;5076088;28;20019;-39
2022/10/28 04:47:15;;;;;;;7.32;4.25;;;15.30;99.90;;;;;;5063976;28;20023;-40
2022/10/28 04:49:41;;;;;;;5.03;3.42;;;15.20;99.90;;;;;;5076329;28;20027;-38
2022/10/28 04:52:07;;;;;;;7.07;3.95;;;15.20;99.90;;;;;;5064172;28;20028;-39
2022/10/28 04:54:32;;;;;;;6.85;4.10;;;15.20;99.90;;;;;;5076451;28;20136;-40
2022/10/28 04:56:57;;;;;;;7.75;3.88;;;15.20;99.90;;;;;;5064504;28;20465;-39
2022/10/28 04:59:23;;;;;;;5.82;4.18;;;15.20;99.90;;;;;;5073271;28;20024;-39
2022/10/28 05:01:49;;;;;;;6.25;3.38;;;15.20;99.90;;;;;;5068104;28;20068;-40
2022/10/28 05:04:14;;;;;;;6.40;3.78;;;15.20;99.90;;;;;;5069756;28;20532;-40
2022/10/28 05:06:40;;;;;;;5.22;4.07;;;15.10;99.90;;;;;;5069538;28;20082;-40
2022/10/28 05:09:05;;;;;;;7.88;3.90;;;15.20;99.90;;;;;;5067827;28;20020;-38
2022/10/28 05:11:31;;;;;;;5.65;3.35;;;15.10;99.90;;;;;;5071387;28;20041;-40
2022/10/28 05:13:56;;;;;;;5.65;3.85;;;15.10;99.90;;;;;;5064534;28;20017;-39
2022/10/28 05:16:22;;;;;;;6.60;4.60;;;15.10;99.90;;;;;;5074275;28;20370;-40
2022/10/28 05:18:48;;;;;;;4.78;3.80;;;15.10;99.90;;;;;;5063930;28;20111;-40
2022/10/28 05:21:13;;;;;;;6.45;4.05;;;15.00;99.90;;;;;;5074188;28;20101;-40
2022/10/28 05:23:39;;;;;;;7.90;4.05;;;15.00;99.90;;;;;;5063763;28;20020;-40
2022/10/28 05:26:07;;;;;;;5.82;3.90;;;15.00;99.90;;;;;;5075226;28;20021;-40
2022/10/28 05:28:33;;;;;;;7.20;3.58;;;15.00;99.90;;;;;;5063071;28;20017;-38
2022/10/28 05:30:59;;;;;;;6.15;3.65;;;14.90;99.90;;;;;;5075026;28;20047;-40
2022/10/28 05:33:24;;;;;;;7.72;3.85;;;14.90;99.90;;;;;;5062255;28;20056;-39
2022/10/28 05:35:50;;;;;;;4.28;3.60;;;14.90;99.90;;;;;;5074584;28;20540;-39
2022/10/28 05:38:16;;;;;;;6.50;3.72;;;14.90;99.90;;;;;;5081309;28;20024;-40
2022/10/28 05:40:42;;;;;;;5.88;4.10;;;15.00;99.90;;;;;;5074794;28;20055;-39
2022/10/28 05:43:09;;;;;;;5.22;3.53;;;15.00;99.90;;;;;;5077646;28;20028;-39
2022/10/28 05:45:34;;;;;;;6.47;3.55;;;15.00;99.90;;;;;;5076772;28;20106;-39
2022/10/28 05:48:00;;;;;;;5.70;3.40;;;15.10;99.90;;;;;;5067987;28;20720;-39
2022/10/28 05:50:26;;;;;;;5.30;3.40;;;15.10;99.90;;;;;;5064883;28;20044;-38
2022/10/28 05:52:55;;;;;;;5.63;3.70;;;15.10;99.90;;;;;;5070855;28;20444;-37
2022/10/28 05:55:23;;;;;;;6.88;3.30;;;15.10;99.90;;;;;;5062896;28;20031;-37
2022/10/28 05:57:50;;;;;;;5.75;3.63;;;15.10;99.90;;;;;;5071081;28;20031;-38
2022/10/28 06:00:18;;;;;;;8.73;3.63;;;15.10;99.90;;;;;;5079586;28;20731;-39
2022/10/28 06:02:43;;;;;;;7.45;4.05;;;15.10;99.90;;;;;;5075234;28;20048;-38
2022/10/28 06:05:09;;;;;;;5.70;3.38;;;15.10;99.90;;;;;;5062382;28;20033;-40
2022/10/28 06:07:36;;;;;;;6.07;3.63;;;15.10;99.90;;;;;;5073661;28;20024;-40
2022/10/28 06:10:03;;;;;;;6.55;3.25;;;15.10;99.90;;;;;;5080431;28;20036;-40
2022/10/28 06:12:28;;;;;;;5.90;3.45;;;15.20;99.90;;;;;;5069093;28;20021;-40
2022/10/28 06:14:54;;;;;;;5.65;3.50;;;15.10;99.90;;;;;;5081940;28;20032;-40
2022/10/28 06:17:19;;;;;;;5.20;3.67;;;15.10;99.90;;;;;;5070059;28;20048;-39
2022/10/28 06:19:48;;;;;;;6.07;3.72;;;15.10;99.90;;;;;;5081602;28;20824;-40
2022/10/28 06:22:14;;;;;;;13.38;3.67;;;15.10;99.90;;;;;;5071504;28;20020;-40
2022/10/28 06:24:42;;;;;;;6.55;3.70;;;15.10;99.90;;;;;;5069266;28;20085;-37
2022/10/28 06:27:07;;;;;;;6.40;3.40;;;15.10;99.90;;;;;;5069159;28;20016;-43
2022/10/28 06:29:33;;;;;;;6.50;3.30;;;15.10;99.90;;;;;;5067520;28;20039;-37
2022/10/28 06:32:05;;;;;;;9.57;3.53;;;15.10;99.90;;;;;;5067064;28;20052;-42
2022/10/28 06:34:30;;;;;;;5.47;3.30;;;15.10;99.90;;;;;;5067968;28;20442;-40
2022/10/28 06:36:56;;;;;;;7.35;4.40;;;15.10;99.90;;;;;;5065643;28;20035;-39
2022/10/28 06:39:21;;;;;;;6.10;3.47;;;15.10;99.90;;;;;;5072528;28;20113;-41
2022/10/28 06:41:47;;;;;;;5.22;3.47;;;15.10;99.90;;;;;;5066127;28;20561;-40
2022/10/28 06:44:12;;;;;;;6.22;3.53;;;15.10;99.90;;;;;;5076554;28;20475;-40
2022/10/28 06:46:38;;;;;;;6.78;3.72;;;15.10;99.90;;;;;;5067865;28;20033;-41
2022/10/28 06:49:04;;;;;;;7.00;3.72;;;15.10;99.90;;;;;;5079040;28;20112;-40
2022/10/28 06:51:30;;;;;;;4.78;3.25;;;15.10;99.90;;;;;;5085003;28;20036;-40
2022/10/28 06:53:55;;;;;;;5.60;3.53;;;15.10;99.90;;;;;;5079011;28;20021;-39
2022/10/28 06:56:21;;;;;;;10.25;3.88;;;15.10;99.90;;;;;;5064738;28;20915;-39
2022/10/28 06:58:52;;;;;;;6.97;3.53;;;15.10;99.90;;;;;;5078094;28;20042;-41
2022/10/28 07:01:17;;;;;;;5.53;3.42;;;15.10;99.90;;;;;;5070446;28;20106;-39
2022/10/28 07:03:43;;;;;;;5.70;3.25;;;15.10;99.90;;;;;;5078186;28;20024;-39
2022/10/28 07:06:09;;;;;;;10.20;3.40;;;15.20;99.90;;;;;;5069655;28;20028;-38
2022/10/28 07:08:35;;;;;;;8.27;3.58;;;15.30;99.90;;;;;;5083440;28;20408;-39
2022/10/28 07:11:01;;;;;;;7.45;3.60;;;15.30;99.90;;;;;;5085054;28;20047;-39
2022/10/28 07:13:27;;;;;;;5.32;3.60;;;15.30;99.90;;;;;;5078154;28;20235;-40
2022/10/28 07:15:54;;;;;;;4.90;3.50;;;15.40;99.90;;;;;;5072808;28;20031;-40
2022/10/28 07:18:21;;;;;;;5.78;3.33;;;15.40;99.90;;;;;;5067535;28;20048;-40
2022/10/28 07:20:46;;;;;;;6.68;3.30;;;15.50;99.90;;;;;;5074870;28;20779;-41
2022/10/28 07:23:12;;;;;;;5.28;3.65;;;15.50;99.90;;;;;;5065801;28;20074;-41
2022/10/28 07:25:38;;;;;;;6.40;3.67;;;15.60;99.90;;;;;;5077839;28;20028;-39
2022/10/28 07:28:03;;;;;;;5.20;3.33;;;15.60;99.90;;;;;;5067199;28;20030;-40
2022/10/28 07:30:30;;;;;;;7.32;3.35;;;15.70;99.90;;;;;;5075475;28;20449;-40
2022/10/28 07:32:59;;;;;;;5.03;3.35;;;15.70;99.90;;;;;;5076134;28;20040;-40
2022/10/28 07:35:26;;;;;;;4.80;3.20;;;15.80;99.90;;;;;;5073968;28;20746;-38
2022/10/28 07:37:51;;;;;;;4.65;3.10;;;15.80;99.90;;;;;;5085181;28;20081;-39
2022/10/28 07:40:18;;;;;;;8.10;3.83;;;15.90;99.90;;;;;;5079498;28;20482;-40
2022/10/28 07:42:44;;;;;;;6.30;3.20;;;15.90;99.90;;;;;;5065893;28;20032;-39
2022/10/28 07:45:09;;;;;;;5.55;3.17;;;16.00;99.90;;;;;;5075379;28;20070;-41
2022/10/28 07:47:35;;;;;;;8.10;3.00;;;16.00;99.90;;;;;;5066545;28;20043;-40
2022/10/28 07:50:00;;;;;;;4.68;3.17;;;16.00;99.90;;;;;;5073851;28;20043;-40
2022/10/28 07:52:26;;;;;;;4.88;3.05;;;16.00;99.90;;;;;;5081284;28;20028;-39
2022/10/28 07:54:51;;;;;;;6.50;3.60;;;16.10;99.90;;;;;;5078937;28;20020;-39
2022/10/28 07:57:17;;;;;;;4.90;3.28;;;16.10;99.90;;;;;;5077725;28;20020;-41
2022/10/28 07:59:43;;;;;;;8.00;3.40;;;16.10;99.90;;;;;;5079088;28;20402;-39
2022/10/28 08:02:16;;;;;;;6.30;3.70;;;16.10;99.90;;;;;;5075460;28;20102;-40
2022/10/28 08:04:41;;;;;;;5.32;3.28;;;16.10;99.90;;;;;;5079910;28;20030;-41
2022/10/28 08:07:07;;;;;;;7.68;3.80;;;16.10;99.90;;;;;;5074686;28;20020;-40
2022/10/28 08:09:32;;;;;;;5.60;3.03;;;16.20;99.90;;;;;;5076390;28;20045;-38
2022/10/28 08:11:58;;;;;;;6.80;3.50;;;16.20;99.90;;;;;;5072722;28;20109;-41
2022/10/28 08:14:24;;;;;;;7.32;2.70;;;16.30;99.90;;;;;;5083612;28;20020;-41
2022/10/28 08:16:49;;;;;;;5.45;3.35;;;16.30;99.90;;;;;;5072338;28;20372;-37
2022/10/28 08:19:15;;;;;;;5.95;3.00;;;16.40;99.90;;;;;;5084235;28;20572;-39
2022/10/28 08:21:40;;;;;;;5.88;3.00;;;16.50;99.90;;;;;;5069094;28;20031;-40
2022/10/28 08:24:06;;;;;;;4.22;2.78;;;16.60;99.90;;;;;;5083044;28;20425;-38
2022/10/28 08:26:32;;;;;;;5.30;3.45;;;16.70;99.90;;;;;;5081050;28;20032;-41
2022/10/28 08:29:00;;;;;;;7.80;2.90;;;16.80;99.90;;;;;;5081027;28;20036;-39
2022/10/28 08:31:25;;;;;;;4.47;2.80;;;16.90;99.90;;;;;;5079759;28;20043;-41
2022/10/28 08:33:51;;;;;;;5.53;2.90;;;16.90;99.90;;;;;;5072238;28;20048;-39
2022/10/28 08:36:17;;;;;;;5.10;3.13;;;17.00;99.90;;;;;;5077190;28;20171;-43
2022/10/28 08:38:43;;;;;;;4.07;2.95;;;17.10;99.90;;;;;;5077986;28;20120;-40
2022/10/28 08:41:23;;;;;;;6.28;3.20;;;17.20;99.90;;;;;;5077688;28;20083;-40
2022/10/28 08:43:58;;;;;;;4.85;3.00;;;17.30;99.90;;;;;;5078560;28;20028;-35
2022/10/28 08:46:56;;;;;;;3.88;2.88;;;17.40;99.90;;;;;;5078666;28;20863;-38
2022/10/28 08:49:23;;;;;;;4.13;2.80;;;17.40;99.90;;;;;;5058378;28;20055;-40
2022/10/28 08:52:19;;;;;;;6.63;3.03;;;17.50;99.90;;;;;;5077675;28;20024;-40
2022/10/28 08:54:50;;;;;;;4.72;3.13;;;17.50;99.90;;;;;;5082086;28;20023;-35
2022/10/28 08:57:30;;;;;;;4.60;2.80;;;17.60;99.90;;;;;;5074427;28;20537;-39
2022/10/28 08:59:58;;;;;;;5.95;2.90;;;17.60;99.90;;;;;;5082761;28;20032;-40
2022/10/28 09:02:27;;;;;;;4.65;3.05;;;17.70;99.90;;;;;;5074638;28;20082;-39
2022/10/28 09:05:14;;;;;;;5.22;3.30;;;17.80;99.90;;;;;;5080007;28;20020;-41
2022/10/28 09:07:42;;;;;;;5.45;3.15;;;17.90;99.90;;;;;;5075254;28;20447;-40
2022/10/28 09:10:12;;;;;;;4.07;2.65;;;18.00;99.90;;;;;;5063260;28;20043;-39
2022/10/28 09:12:44;;;;;;;3.00;2.38;;;18.10;99.90;;;;;;5070739;28;20024;-40
2022/10/28 09:15:32;;;;;;;3.63;2.60;;;18.10;99.90;;;;;;5067334;28;20115;-36
2022/10/28 09:18:18;;;;;;;6.10;3.70;;;18.30;99.90;;;;;;5071407;28;20035;-38
2022/10/28 09:20:52;;;;;;;5.53;3.10;;;18.40;99.90;;;;;;5064680;28;20021;-40
2022/10/28 09:23:41;;;;;;;4.70;3.05;;;18.50;99.90;;;;;;5071373;28;20027;-39
2022/10/28 09:26:27;;;;;;;4.60;3.25;;;18.60;99.90;;;;;;5062025;28;20040;-39
2022/10/28 09:29:01;;;;;;;4.55;3.30;;;18.70;99.90;;;;;;5068457;28;20028;-39
2022/10/28 09:31:36;;;;;;;7.07;3.53;;;18.80;99.90;;;;;;5081862;28;20490;-37
2022/10/28 09:34:11;;;;;;;6.25;3.30;;;18.90;99.90;;;;;;5076316;28;20027;-39
2022/10/28 09:36:48;;;;;;;5.50;2.85;;;18.90;99.90;;;;;;5083509;28;20051;-40
2022/10/28 09:39:28;;;;;;;4.25;3.13;;;19.00;99.90;;;;;;5077966;28;20051;-40
2022/10/28 09:41:57;;;;;;;7.18;3.72;;;19.10;99.90;;;;;;5081912;28;20765;-39
2022/10/28 09:44:44;;;;;;;5.40;3.67;;;19.10;99.90;;;;;;5077513;28;20031;-40
2022/10/28 09:47:36;;;;;;;6.85;3.60;;;19.20;99.90;;;;;;5062859;28;20033;-37
2022/10/28 09:50:11;;;;;;;5.80;3.38;;;19.30;99.90;;;;;;5062520;28;20044;-38
2022/10/28 09:52:48;;;;;;;6.40;3.17;;;19.30;99.90;;;;;;5062808;28;20107;-38
2022/10/28 09:55:21;;;;;;;5.15;3.30;;;19.40;99.90;;;;;;5077733;28;20484;-38
2022/10/28 09:57:47;;;;;;;5.25;3.50;;;19.40;99.90;;;;;;5064300;28;20033;-40
2022/10/28 10:00:14;;;;;;;6.07;3.47;;;19.40;99.90;;;;;;5069528;28;20035;-40
2022/10/28 10:02:41;;;;;;;7.80;3.65;;;19.50;99.90;;;;;;5083432;28;20035;-40
2022/10/28 10:05:19;;;;;;;7.60;3.83;;;19.50;99.90;;;;;;5070324;28;20111;-41
2022/10/28 10:07:58;;;;;;;5.40;3.92;;;19.60;99.90;;;;;;5083306;28;20028;-39
2022/10/28 10:10:38;;;;;;;6.35;3.47;;;19.60;99.90;;;;;;5076040;28;20039;-39
2022/10/28 10:13:06;;;;;;;9.57;3.83;;;19.60;99.90;;;;;;5062997;28;20127;-40
2022/10/28 10:15:37;;;;;;;5.72;3.72;;;19.70;99.90;;;;;;5075785;28;20028;-41
2022/10/28 10:18:04;;;;;;;7.65;3.92;;;19.70;99.90;;;;;;5066955;28;20024;-39
2022/10/28 10:20:54;;;;;;;7.00;4.03;;;19.80;99.90;;;;;;5078653;28;20028;-39
2022/10/28 10:23:30;;;;;;;5.10;3.42;;;19.80;99.90;;;;;;5066729;28;20093;-41
2022/10/28 10:26:15;;;;;;;6.53;3.15;;;19.80;99.90;;;;;;5077991;28;20047;-40
2022/10/28 10:28:49;;;;;;;4.70;3.10;;;19.90;99.90;;;;;;5066570;28;20025;-41
2022/10/28 10:31:24;;;;;;;5.50;3.50;;;19.80;99.90;;;;;;5078971;28;20143;-40
2022/10/28 10:33:53;;;;;;;5.93;3.63;;;19.80;99.90;;;;;;5066481;28;20131;-36
2022/10/28 10:36:27;;;;;;;4.45;3.15;;;19.90;99.90;;;;;;5078704;28;20037;-39
2022/10/28 10:38:53;;;;;;;4.97;3.20;;;19.90;99.90;;;;;;5066449;28;20714;-40
2022/10/28 10:41:42;;;;;;;5.65;3.67;;;19.90;99.90;;;;;;5078032;28;20028;-40
2022/10/28 10:44:34;;;;;;;6.25;3.50;;;19.90;99.90;;;;;;5065865;28;20043;-40
2022/10/28 10:47:00;;;;;;;6.80;3.90;;;19.90;99.90;;;;;;5072942;28;20037;-40
2022/10/28 10:49:27;;;;;;;6.72;3.88;;;20.00;99.90;;;;;;5065188;28;20085;-40
2022/10/28 10:51:56;;;;;;;6.72;3.58;;;20.10;99.90;;;;;;5078493;28;20041;-40
2022/10/28 10:54:28;;;;;;;6.15;3.92;;;20.10;99.90;;;;;;5064850;28;20494;-41
2022/10/28 10:56:53;;;;;;;5.85;3.17;;;20.10;99.90;;;;;;5078364;28;20028;-40
2022/10/28 10:59:30;;;;;;;7.95;3.00;;;20.10;99.90;;;;;;5065907;28;20336;-40
2022/10/28 11:02:30;;;;;;;5.30;2.58;;;20.20;99.90;;;;;;5078225;28;20034;-41
2022/10/28 11:05:07;;;;;;;6.00;3.00;;;20.20;99.90;;;;;;5066337;28;20067;-40
2022/10/28 11:07:33;;;;;;;6.22;3.50;;;20.20;99.90;;;;;;5074077;28;20024;-40
2022/10/28 11:10:00;;;;;;;7.82;3.08;;;20.30;99.90;;;;;;5071117;28;20028;-39
2022/10/28 11:12:29;;;;;;;7.18;3.53;;;20.30;99.90;;;;;;5078295;28;20089;-40
2022/10/28 11:15:03;;;;;;;5.95;3.10;;;20.40;99.90;;;;;;5065994;28;20110;-43
2022/10/28 11:17:31;;;;;;;6.32;3.00;;;20.40;99.90;;;;;;5077393;28;20032;-40
2022/10/28 11:19:59;;;;;;;9.18;3.30;;;20.50;99.90;;;;;;5065997;28;20071;-42
2022/10/28 11:22:40;;;;;;;4.82;2.83;;;20.50;99.90;;;;;;5076306;28;20779;-40
2022/10/28 11:25:35;;;;;;;4.03;3.25;;;20.60;99.90;;;;;;5065538;28;20099;-41
2022/10/28 11:28:33;;;;;;;5.32;3.30;;;20.70;99.90;;;;;;5077062;28;20028;-41
2022/10/28 11:31:37;;;;;;;5.70;3.70;;;20.70;99.90;;;;;;5065331;28;20041;-39
2022/10/28 11:34:18;;;;;;;8.90;3.40;;;20.70;99.90;;;;;;5075642;28;20788;-40
2022/10/28 11:37:10;;;;;;;8.57;3.72;;;20.80;99.90;;;;;;5084256;28;20024;-40
2022/10/28 11:40:09;;;;;;;7.93;3.38;;;20.80;99.90;;;;;;5077965;28;20490;-38
2022/10/28 11:42:47;;;;;;;7.95;3.58;;;20.90;99.90;;;;;;5078812;28;20094;-40
2022/10/28 11:45:22;;;;;;;8.18;3.20;;;21.00;99.90;;;;;;5080790;28;20028;-39
2022/10/28 11:48:06;;;;;;;5.50;3.00;;;21.00;99.90;;;;;;5078304;28;20503;-39
2022/10/28 11:50:43;;;;;;;5.30;2.95;;;21.10;99.90;;;;;;5082172;28;20044;-38
2022/10/28 11:53:50;;;;;;;4.95;2.67;;;21.20;99.90;;;;;;5076002;28;20020;-40
2022/10/28 11:56:46;;;;;;;5.43;2.88;;;21.30;99.90;;;;;;5008966;28;20051;-40
2022/10/28 11:59:25;;;;;;;5.15;2.90;;;21.30;99.90;;;;;;5071708;28;20039;-40
2022/10/28 12:02:11;;;;;;;5.75;3.22;;;21.40;99.90;;;;;;5085667;28;20038;-40
2022/10/28 12:05:00;;;;;;;5.65;3.30;;;21.40;99.90;;;;;;5074329;28;20043;-40
2022/10/28 12:07:53;;;;;;;8.43;3.45;;;21.50;99.90;;;;;;5083495;28;20028;-40
2022/10/28 12:10:29;;;;;;;4.90;3.38;;;21.60;99.90;;;;;;5081427;28;20044;-41
2022/10/28 12:13:10;;;;;;;5.32;2.85;;;21.60;99.90;;;;;;5082940;28;20120;-40
2022/10/28 12:15:55;;;;;;;6.18;2.80;;;21.60;99.90;;;;;;5076058;28;20114;-39
2022/10/28 12:18:30;;;;;;;5.05;3.00;;;21.60;99.90;;;;;;5081399;28;20294;-40
2022/10/28 12:21:17;;;;;;;7.07;3.35;;;21.70;99.90;;;;;;5076567;28;20026;-41
2022/10/28 12:23:45;;;;;;;5.53;3.22;;;21.70;99.90;;;;;;5079801;28;20452;-40
2022/10/28 12:26:15;;;;;;;5.25;3.15;;;21.70;99.90;;;;;;5076789;28;20038;-40
2022/10/28 12:28:56;;;;;;;4.10;2.50;;;21.80;99.90;;;;;;5082288;28;20055;-39
2022/10/28 12:31:29;;;;;;;8.10;3.05;;;21.80;99.90;;;;;;5077401;28;20043;-40
2022/10/28 12:34:00;;;;;;;5.20;2.90;;;21.80;99.90;;;;;;5080561;28;20027;-39
2022/10/28 12:36:45;;;;;;;4.90;2.40;;;21.90;99.90;;;;;;5076295;28;20032;-40
2022/10/28 12:39:26;;;;;;;8.30;3.22;;;21.90;99.90;;;;;;5079525;28;20032;-40
2022/10/28 12:42:18;;;;;;;5.32;2.78;;;21.90;99.90;;;;;;5077986;28;20043;-40
2022/10/28 12:44:44;;;;;;;5.60;2.65;;;21.90;99.90;;;;;;5072484;28;20140;-39
2022/10/28 12:47:27;;;;;;;4.07;2.60;;;21.90;99.90;;;;;;5078632;28;20119;-37
2022/10/28 12:50:03;;;;;;;5.85;2.70;;;21.90;99.90;;;;;;5076742;28;20403;-38
2022/10/28 12:52:37;;;;;;;7.35;2.83;;;22.00;99.90;;;;;;5080086;28;20115;-40
2022/10/28 12:55:12;;;;;;;7.72;2.88;;;22.00;99.90;;;;;;5076107;28;20025;-42
2022/10/28 12:57:41;;;;;;;6.88;3.03;;;22.00;99.90;;;;;;5080601;28;20077;-38
2022/10/28 13:00:18;;;;;;;6.32;3.13;;;22.00;99.90;;;;;;5077711;28;20028;-40
2022/10/28 13:03:00;;;;;;;5.78;2.80;;;22.00;99.90;;;;;;5079427;28;20131;-40
2022/10/28 13:05:33;;;;;;;6.28;3.08;;;22.00;99.90;;;;;;5075106;28;20067;-40
2022/10/28 13:08:21;;;;;;;6.05;3.10;;;22.00;99.90;;;;;;5079931;28;20027;-40
2022/10/28 13:11:25;;;;;;;4.95;2.55;;;22.00;99.90;;;;;;5073997;28;20044;-41
2022/10/28 13:14:00;;;;;;;6.15;3.15;;;22.00;99.90;;;;;;5063766;28;20599;-39